createdAt,value
2023-04-29T00:00:14.178Z,1195.3077
2023-04-29T00:01:15.309Z,1195.6923
2023-04-29T00:02:16.428Z,1194.7693
2023-04-29T00:03:17.756Z,1193.1538
2023-04-29T00:04:18.782Z,1194.6923
2023-04-29T00:05:19.843Z,1194.1538
2023-04-29T00:06:20.780Z,1191.6923
2023-04-29T00:07:21.852Z,1191.5385
2023-04-29T00:08:22.906Z,1190.6154
2023-04-29T00:09:24.026Z,1195.5385
2023-04-29T00:10:25.103Z,1196.6154
2023-04-29T00:11:26.182Z,1193.7693
2023-04-29T00:12:27.315Z,1179.1538
2023-04-29T00:13:28.360Z,1174.8462
2023-04-29T00:14:29.463Z,1178.3077
2023-04-29T00:15:30.539Z,1182.3846
2023-04-29T00:16:31.685Z,1188.9231
2023-04-29T00:17:32.845Z,1187.6154
2023-04-29T00:18:33.847Z,1177.1538
2023-04-29T00:19:35.007Z,1176.6154
2023-04-29T00:20:36.032Z,1172.6154
2023-04-29T00:21:37.194Z,1173.5385
2023-04-29T00:22:38.279Z,1176.0000
2023-04-29T00:23:39.385Z,1169.6154
2023-04-29T00:24:40.457Z,1156.4615
2023-04-29T00:25:41.530Z,1150.7693
2023-04-29T00:26:42.638Z,1149.1538
2023-04-29T00:27:43.716Z,1154.5385
2023-04-29T00:28:44.794Z,1161.5385
2023-04-29T00:29:45.911Z,1152.6923
2023-04-29T00:30:47.105Z,1153.7693
2023-04-29T00:31:48.114Z,1157.3846
2023-04-29T00:32:49.213Z,1157.6154
2023-04-29T00:33:50.283Z,1159.8462
2023-04-29T00:34:51.336Z,1161.3846
2023-04-29T00:35:52.492Z,1164.0769
2023-04-29T00:36:53.520Z,1161.0000
2023-04-29T00:37:54.602Z,1148.3077
2023-04-29T00:38:55.687Z,1139.2307
2023-04-29T00:39:56.789Z,1142.5385
2023-04-29T00:40:57.890Z,1148.7693
2023-04-29T00:41:59.012Z,1150.0000
2023-04-29T00:43:00.031Z,1153.8462
2023-04-29T00:44:01.143Z,1147.8462
2023-04-29T00:45:02.250Z,1140.5385
2023-04-29T00:46:03.322Z,1136.4615
2023-04-29T00:47:04.434Z,1133.3846
2023-04-29T00:48:05.519Z,1138.6154
2023-04-29T00:49:06.578Z,1139.7693
2023-04-29T00:50:07.663Z,1136.8462
2023-04-29T00:51:08.740Z,1134.3846
2023-04-29T00:52:09.875Z,1132.2307
2023-04-29T00:53:10.910Z,1131.7693
2023-04-29T00:54:11.992Z,1136.8462
2023-04-29T00:55:13.150Z,1142.0000
2023-04-29T00:56:14.177Z,1136.9231
2023-04-29T00:57:15.267Z,1129.3077
2023-04-29T00:58:16.362Z,1125.6154
2023-04-29T00:59:17.435Z,1127.3077
2023-04-29T01:00:18.547Z,1131.0769
2023-04-29T01:01:19.637Z,1128.6154
2023-04-29T01:02:20.804Z,1131.7693
2023-04-29T01:03:21.873Z,1130.3077
2023-04-29T01:04:22.947Z,1116.9231
2023-04-29T01:05:23.974Z,1108.3846
2023-04-29T01:06:25.126Z,1106.6154
2023-04-29T01:07:26.201Z,1110.8462
2023-04-29T01:08:27.273Z,1119.4615
2023-04-29T01:09:28.353Z,1118.1538
2023-04-29T01:10:29.496Z,1112.1538
2023-04-29T01:11:30.575Z,1112.6923
2023-04-29T01:12:31.637Z,1115.7693
2023-04-29T01:13:32.786Z,1109.5385
2023-04-29T01:14:33.824Z,1107.9231
2023-04-29T01:15:34.913Z,1110.2307
2023-04-29T01:16:36.017Z,1108.3846
2023-04-29T01:17:38.760Z,1102.6923
2023-04-29T01:18:38.176Z,1098.4615
2023-04-29T01:19:39.308Z,1104.6923
2023-04-29T01:20:40.363Z,1106.2307
2023-04-29T01:21:41.424Z,1107.0769
2023-04-29T01:22:42.569Z,1102.3846
2023-04-29T01:23:43.587Z,1096.3077
2023-04-29T01:24:44.701Z,1094.7693
2023-04-29T01:25:45.793Z,1098.4615
2023-04-29T01:26:46.859Z,1102.0000
2023-04-29T01:27:48.013Z,1100.1538
2023-04-29T01:28:49.065Z,1096.0769
2023-04-29T01:29:50.308Z,1089.9231
2023-04-29T01:30:51.204Z,1089.1538
2023-04-29T01:31:52.378Z,1090.3077
2023-04-29T01:32:53.495Z,1093.6154
2023-04-29T01:33:54.501Z,1092.8462
2023-04-29T01:34:55.671Z,1099.0769
2023-04-29T01:35:56.682Z,1096.5385
2023-04-29T01:36:57.774Z,1079.5385
2023-04-29T01:37:58.852Z,1073.7693
2023-04-29T01:38:59.961Z,1074.1538
2023-04-29T01:40:01.038Z,1076.2307
2023-04-29T01:41:02.188Z,1077.9231
2023-04-29T01:42:03.236Z,1078.2307
2023-04-29T01:43:04.322Z,1074.6154
2023-04-29T01:44:05.386Z,1069.0769
2023-04-29T01:45:06.564Z,1064.8462
2023-04-29T01:46:07.573Z,1064.4615
2023-04-29T01:47:08.646Z,1066.1538
2023-04-29T01:48:09.789Z,1068.2307
2023-04-29T01:49:10.818Z,1069.3846
2023-04-29T01:50:11.917Z,1068.0000
2023-04-29T01:51:13.022Z,1065.3077
2023-04-29T01:52:14.094Z,1065.2307
2023-04-29T01:53:15.245Z,1067.6154
2023-04-29T01:54:16.303Z,1069.0769
2023-04-29T01:55:17.366Z,1072.6154
2023-04-29T01:56:18.464Z,1070.2307
2023-04-29T01:57:19.545Z,1061.8462
2023-04-29T01:58:20.641Z,1059.3077
2023-04-29T01:59:21.736Z,1062.0000
2023-04-29T02:00:22.826Z,1066.3846
2023-04-29T02:01:24.160Z,1063.3846
2023-04-29T02:02:25.021Z,1058.8462
2023-04-29T02:03:26.195Z,1054.1538
2023-04-29T02:04:27.189Z,1051.0769
2023-04-29T02:05:28.256Z,1052.4615
2023-04-29T02:06:29.357Z,1059.4615
2023-04-29T02:07:30.420Z,1061.6154
2023-04-29T02:08:31.551Z,1055.1538
2023-04-29T02:09:32.604Z,1045.7693
2023-04-29T02:10:41.273Z,1043.2307
2023-04-29T02:11:34.795Z,1043.6666
2023-04-29T02:12:35.862Z,1044.8462
2023-04-29T02:13:37.006Z,1045.0000
2023-04-29T02:14:38.214Z,1044.3846
2023-04-29T02:15:39.194Z,1040.7693
2023-04-29T02:16:40.282Z,1037.5385
2023-04-29T02:17:41.381Z,1041.5385
2023-04-29T02:18:42.506Z,1043.6154
2023-04-29T02:19:43.487Z,1043.2307
2023-04-29T02:20:44.573Z,1037.7693
2023-04-29T02:21:45.682Z,1031.3846
2023-04-29T02:22:46.823Z,1032.4615
2023-04-29T02:23:47.869Z,1033.9231
2023-04-29T02:24:48.939Z,1033.3846
2023-04-29T02:25:50.039Z,1038.4615
2023-04-29T02:26:51.123Z,1040.6923
2023-04-29T02:27:52.228Z,1035.6154
2023-04-29T02:28:53.371Z,1027.4615
2023-04-29T02:29:54.453Z,1025.7693
2023-04-29T02:30:55.497Z,1025.1538
2023-04-29T02:31:56.617Z,1030.1538
2023-04-29T02:32:57.699Z,1031.2307
2023-04-29T02:33:58.829Z,1030.0769
2023-04-29T02:34:59.849Z,1023.2308
2023-04-29T02:36:00.962Z,1017.3846
2023-04-29T02:37:02.075Z,1020.3846
2023-04-29T02:38:03.122Z,1022.0769
2023-04-29T02:39:04.219Z,1022.8461
2023-04-29T02:40:05.335Z,1018.4615
2023-04-29T02:41:06.394Z,1015.8461
2023-04-29T02:42:07.477Z,1015.3846
2023-04-29T02:43:08.555Z,1016.6923
2023-04-29T02:44:09.662Z,1017.5385
2023-04-29T02:45:10.750Z,1021.6154
2023-04-29T02:46:11.871Z,1025.5385
2023-04-29T02:47:12.930Z,1017.6923
2023-04-29T02:48:14.001Z,1014.0000
2023-04-29T02:49:15.124Z,1011.7692
2023-04-29T02:50:16.171Z,1009.3077
2023-04-29T02:51:17.283Z,1011.6154
2023-04-29T02:52:18.368Z,1015.6154
2023-04-29T02:53:19.455Z,1012.0000
2023-04-29T02:54:20.544Z,997.2308
2023-04-29T02:55:21.636Z,993.3077
2023-04-29T02:56:22.700Z,992.6923
2023-04-29T02:57:23.812Z,995.1539
2023-04-29T02:58:24.886Z,999.6923
2023-04-29T02:59:25.956Z,1001.7692
2023-04-29T03:00:27.075Z,999.2308
2023-04-29T03:01:28.217Z,1000.6154
2023-04-29T03:02:29.389Z,996.3846
2023-04-29T03:03:30.499Z,997.8461
2023-04-29T03:04:31.467Z,1000.2308
2023-04-29T03:05:32.516Z,1004.8461
2023-04-29T03:06:33.583Z,1004.7692
2023-04-29T03:07:34.677Z,994.2308
2023-04-29T03:08:35.795Z,984.6154
2023-04-29T03:09:36.878Z,986.1539
2023-04-29T03:10:39.196Z,988.3846
2023-04-29T03:11:39.024Z,987.2308
2023-04-29T03:12:40.120Z,981.2308
2023-04-29T03:13:41.209Z,975.2308
2023-04-29T03:14:42.330Z,975.0000
2023-04-29T03:15:43.377Z,972.9231
2023-04-29T03:16:44.529Z,978.1539
2023-04-29T03:17:45.546Z,985.8461
2023-04-29T03:18:46.634Z,990.4615
2023-04-29T03:19:47.737Z,986.3077
2023-04-29T03:20:48.793Z,981.6923
2023-04-29T03:21:50.736Z,977.0769
2023-04-29T03:22:50.963Z,976.2308
2023-04-29T03:23:52.073Z,974.8461
2023-04-29T03:24:53.175Z,981.2308
2023-04-29T03:25:54.331Z,973.4615
2023-04-29T03:26:55.339Z,963.4615
2023-04-29T03:27:56.415Z,965.8461
2023-04-29T03:28:57.506Z,975.3846
2023-04-29T03:29:58.616Z,974.3846
2023-04-29T03:30:59.715Z,976.6154
2023-04-29T03:32:00.794Z,977.8461
2023-04-29T03:33:01.928Z,973.8461
2023-04-29T03:34:02.972Z,969.7692
2023-04-29T03:35:04.060Z,968.3846
2023-04-29T03:36:05.117Z,969.1539
2023-04-29T03:37:06.249Z,968.5385
2023-04-29T03:38:07.298Z,966.9231
2023-04-29T03:39:08.420Z,968.5385
2023-04-29T03:40:09.529Z,968.2308
2023-04-29T03:41:10.583Z,967.4615
2023-04-29T03:42:11.728Z,967.0769
2023-04-29T03:43:12.750Z,966.8461
2023-04-29T03:44:13.837Z,974.0000
2023-04-29T03:45:14.950Z,972.3077
2023-04-29T03:46:16.083Z,962.3077
2023-04-29T03:47:17.100Z,957.6154
2023-04-29T03:48:18.258Z,958.5385
2023-04-29T03:49:19.301Z,963.6923
2023-04-29T03:50:20.396Z,962.5385
2023-04-29T03:51:21.472Z,962.0769
2023-04-29T03:52:22.582Z,953.9231
2023-04-29T03:53:23.655Z,947.4615
2023-04-29T03:54:24.829Z,947.6923
2023-04-29T03:55:25.831Z,945.8461
2023-04-29T03:56:26.943Z,947.8461
2023-04-29T03:57:28.003Z,948.7692
2023-04-29T03:58:29.104Z,948.0000
2023-04-29T03:59:30.178Z,945.4615
2023-04-29T04:00:31.362Z,941.3846
2023-04-29T04:01:32.393Z,939.6154
2023-04-29T04:02:33.598Z,939.0000
2023-04-29T04:03:34.638Z,947.9231
2023-04-29T04:04:35.797Z,948.9231
2023-04-29T04:05:36.745Z,941.0769
2023-04-29T04:06:37.796Z,935.4615
2023-04-29T04:07:38.902Z,934.2308
2023-04-29T04:08:39.975Z,935.6154
2023-04-29T04:09:41.085Z,940.1539
2023-04-29T04:10:42.171Z,941.6923
2023-04-29T04:11:43.292Z,938.1539
2023-04-29T04:12:44.482Z,935.4615
2023-04-29T04:13:45.432Z,930.4615
2023-04-29T04:14:46.506Z,929.5385
2023-04-29T04:15:47.708Z,932.9231
2023-04-29T04:16:48.701Z,934.7692
2023-04-29T04:17:49.821Z,923.5385
2023-04-29T04:18:50.889Z,914.6923
2023-04-29T04:19:52.302Z,912.6923
2023-04-29T04:20:53.059Z,921.3846
2023-04-29T04:21:54.170Z,923.3077
2023-04-29T04:22:55.391Z,925.9231
2023-04-29T04:23:56.454Z,930.8461
2023-04-29T04:24:57.541Z,925.3077
2023-04-29T04:25:58.630Z,917.0000
2023-04-29T04:26:59.721Z,914.3846
2023-04-29T04:28:00.846Z,915.4615
2023-04-29T04:29:01.936Z,916.4615
2023-04-29T04:30:03.026Z,918.3077
2023-04-29T04:31:04.134Z,924.7692
2023-04-29T04:32:05.335Z,918.6154
2023-04-29T04:33:06.416Z,913.3846
2023-04-29T04:34:07.416Z,914.0769
2023-04-29T04:35:08.554Z,919.5385
2023-04-29T04:36:09.620Z,918.8461
2023-04-29T04:37:10.704Z,919.2308
2023-04-29T04:38:11.831Z,916.0000
2023-04-29T04:39:12.906Z,912.7692
2023-04-29T04:40:14.042Z,911.1539
2023-04-29T04:41:15.127Z,914.0769
2023-04-29T04:42:16.212Z,913.6154
2023-04-29T04:43:17.305Z,912.3846
2023-04-29T04:44:18.418Z,913.6923
2023-04-29T04:45:19.491Z,907.1539
2023-04-29T04:46:20.674Z,905.0000
2023-04-29T04:47:21.734Z,902.2308
2023-04-29T04:48:22.805Z,901.9231
2023-04-29T04:49:23.893Z,903.3077
2023-04-29T04:50:25.011Z,901.0000
2023-04-29T04:51:26.112Z,899.0769
2023-04-29T04:52:27.238Z,895.6923
2023-04-29T04:53:28.284Z,894.9231
2023-04-29T04:54:29.386Z,894.2308
2023-04-29T04:55:30.481Z,898.6923
2023-04-29T04:56:31.576Z,905.9231
2023-04-29T04:57:32.670Z,900.1539
2023-04-29T04:58:33.812Z,886.6154
2023-04-29T04:59:34.868Z,886.5385
2023-04-29T05:00:35.950Z,895.7692
2023-04-29T05:01:37.173Z,887.8461
2023-04-29T05:02:38.277Z,891.7692
2023-04-29T05:03:39.503Z,892.6154
2023-04-29T05:04:40.378Z,892.5385
2023-04-29T05:05:41.434Z,888.6154
2023-04-29T05:06:42.561Z,886.6923
2023-04-29T05:07:43.648Z,885.5385
2023-04-29T05:08:44.734Z,887.3846
2023-04-29T05:09:45.885Z,893.0000
2023-04-29T05:10:46.946Z,892.8461
2023-04-29T05:11:48.169Z,882.5385
2023-04-29T05:12:49.148Z,875.0000
2023-04-29T05:13:50.265Z,874.1539
2023-04-29T05:14:51.340Z,878.3077
2023-04-29T05:15:52.494Z,880.6154
2023-04-29T05:16:53.594Z,887.1539
2023-04-29T05:17:54.708Z,886.6154
2023-04-29T05:18:55.766Z,876.6154
2023-04-29T05:19:56.848Z,875.8461
2023-04-29T05:20:57.967Z,877.6154
2023-04-29T05:21:59.142Z,879.7692
2023-04-29T05:23:00.180Z,881.7692
2023-04-29T05:24:01.258Z,875.3077
2023-04-29T05:25:02.343Z,869.0000
2023-04-29T05:26:03.523Z,869.8461
2023-04-29T05:27:04.572Z,872.3846
2023-04-29T05:28:05.725Z,873.7692
2023-04-29T05:29:06.740Z,878.2308
2023-04-29T05:30:07.851Z,879.8461
2023-04-29T05:31:09.013Z,871.3077
2023-04-29T05:32:10.060Z,866.1539
2023-04-29T05:33:11.216Z,866.5385
2023-04-29T05:34:12.249Z,866.3077
2023-04-29T05:35:13.373Z,867.6923
2023-04-29T05:36:14.448Z,869.1539
2023-04-29T05:37:15.562Z,866.2308
2023-04-29T05:38:16.651Z,861.6923
2023-04-29T05:39:17.797Z,862.3846
2023-04-29T05:40:18.860Z,860.6923
2023-04-29T05:41:19.948Z,863.2308
2023-04-29T05:42:21.054Z,866.9231
2023-04-29T05:43:22.178Z,872.6923
2023-04-29T05:44:23.253Z,868.2308
2023-04-29T05:45:24.389Z,862.9231
2023-04-29T05:46:25.512Z,862.1539
2023-04-29T05:47:26.572Z,862.7692
2023-04-29T05:48:27.758Z,866.8461
2023-04-29T05:49:28.772Z,867.0000
2023-04-29T05:50:29.875Z,861.0000
2023-04-29T05:51:31.040Z,856.8461
2023-04-29T05:52:32.081Z,857.0000
2023-04-29T05:53:33.166Z,854.8461
2023-04-29T05:54:34.279Z,858.3077
2023-04-29T05:55:35.371Z,862.7692
2023-04-29T05:56:36.490Z,862.3846
2023-04-29T05:57:37.634Z,856.0000
2023-04-29T05:58:38.700Z,851.6154
2023-04-29T05:59:39.772Z,847.5385
2023-04-29T06:00:40.929Z,846.6154
2023-04-29T06:01:41.977Z,847.9231
2023-04-29T06:02:54.943Z,850.6923
2023-04-29T06:03:45.436Z,845.3846
2023-04-29T06:04:45.482Z,846.0769
2023-04-29T06:05:46.614Z,846.8461
2023-04-29T06:06:47.480Z,847.2308
2023-04-29T06:07:48.611Z,851.5385
2023-04-29T06:08:49.673Z,853.0769
2023-04-29T06:09:51.091Z,851.9231
2023-04-29T06:10:51.902Z,841.0769
2023-04-29T06:11:52.997Z,829.1539
2023-04-29T06:12:54.086Z,830.8461
2023-04-29T06:13:55.187Z,838.5385
2023-04-29T06:14:56.296Z,843.4615
2023-04-29T06:15:57.401Z,846.7692
2023-04-29T06:16:58.473Z,841.2308
2023-04-29T06:17:59.653Z,837.2308
2023-04-29T06:19:00.687Z,838.7692
2023-04-29T06:20:01.807Z,841.6923
2023-04-29T06:21:02.873Z,844.5385
2023-04-29T06:22:04.011Z,844.5385
2023-04-29T06:23:05.081Z,841.4615
2023-04-29T06:24:06.189Z,839.7692
2023-04-29T06:25:07.271Z,840.0000
2023-04-29T06:26:08.404Z,833.9231
2023-04-29T06:27:09.471Z,837.6923
2023-04-29T06:28:10.631Z,841.8461
2023-04-29T06:29:11.736Z,838.0769
2023-04-29T06:30:12.791Z,832.6923
2023-04-29T06:31:13.895Z,827.9231
2023-04-29T06:32:14.988Z,823.6154
2023-04-29T06:33:16.136Z,828.0000
2023-04-29T06:34:17.236Z,830.0769
2023-04-29T06:35:18.293Z,831.3077
2023-04-29T06:36:19.393Z,829.5385
2023-04-29T06:37:20.509Z,828.2308
2023-04-29T06:38:21.625Z,827.9231
2023-04-29T06:39:22.723Z,827.5385
2023-04-29T06:40:23.845Z,831.5385
2023-04-29T06:41:24.905Z,830.7692
2023-04-29T06:42:26.001Z,826.7692
2023-04-29T06:43:27.112Z,822.5385
2023-04-29T06:44:28.216Z,819.6154
2023-04-29T06:45:29.305Z,820.2308
2023-04-29T06:46:30.459Z,821.5385
2023-04-29T06:47:31.550Z,824.1539
2023-04-29T06:48:32.605Z,821.6154
2023-04-29T06:49:33.718Z,818.6923
2023-04-29T06:50:34.797Z,816.5385
2023-04-29T06:51:35.916Z,820.3846
2023-04-29T06:52:37.045Z,821.6154
2023-04-29T06:53:38.135Z,822.7692
2023-04-29T06:54:39.213Z,821.9231
2023-04-29T06:55:40.317Z,815.2308
2023-04-29T06:56:41.404Z,814.2308
2023-04-29T06:57:42.514Z,814.7692
2023-04-29T06:58:43.720Z,816.2308
2023-04-29T06:59:44.729Z,818.3846
2023-04-29T07:00:45.889Z,817.9231
2023-04-29T07:01:49.077Z,815.5385
2023-04-29T07:02:48.035Z,809.3846
2023-04-29T07:03:49.481Z,805.6154
2023-04-29T07:04:50.424Z,801.5385
2023-04-29T07:05:51.330Z,803.8461
2023-04-29T07:06:52.406Z,807.7692
2023-04-29T07:07:53.518Z,809.9231
2023-04-29T07:08:56.331Z,809.3846
2023-04-29T07:09:55.918Z,807.6154
2023-04-29T07:10:56.857Z,805.3077
2023-04-29T07:11:57.903Z,805.8461
2023-04-29T07:12:59.004Z,806.6923
2023-04-29T07:14:00.139Z,810.7692
2023-04-29T07:15:01.210Z,811.6154
2023-04-29T07:16:02.312Z,796.1539
2023-04-29T07:17:03.556Z,800.0769
2023-04-29T07:18:04.549Z,799.6154
2023-04-29T07:19:05.600Z,803.0000
2023-04-29T07:20:06.716Z,804.1539
2023-04-29T07:21:07.819Z,800.3077
2023-04-29T07:22:08.903Z,795.9231
2023-04-29T07:23:10.038Z,795.2308
2023-04-29T07:24:11.122Z,798.3846
2023-04-29T07:25:12.210Z,801.1539
2023-04-29T07:26:13.313Z,801.0769
2023-04-29T07:27:14.406Z,800.1539
2023-04-29T07:28:15.515Z,794.8461
2023-04-29T07:29:16.669Z,793.0769
2023-04-29T07:30:17.717Z,789.3846
2023-04-29T07:31:18.850Z,788.6154
2023-04-29T07:32:19.942Z,792.3077
2023-04-29T07:33:21.008Z,797.7692
2023-04-29T07:34:22.126Z,796.0000
2023-04-29T07:35:23.245Z,794.5385
2023-04-29T07:36:24.315Z,788.6923
2023-04-29T07:37:25.404Z,790.9231
2023-04-29T07:38:26.524Z,791.7692
2023-04-29T07:39:27.626Z,793.2308
2023-04-29T07:40:28.739Z,794.9231
2023-04-29T07:41:29.869Z,790.4615
2023-04-29T07:42:30.941Z,785.8461
2023-04-29T07:43:32.118Z,788.3077
2023-04-29T07:44:33.135Z,788.2308
2023-04-29T07:45:34.235Z,791.0000
2023-04-29T07:46:35.341Z,790.2308
2023-04-29T07:47:36.472Z,787.1539
2023-04-29T07:48:37.530Z,785.4615
2023-04-29T07:49:38.638Z,787.0769
2023-04-29T07:50:39.725Z,784.7692
2023-04-29T07:51:40.806Z,786.6154
2023-04-29T07:52:41.919Z,791.3846
2023-04-29T07:53:43.039Z,791.9231
2023-04-29T07:54:44.129Z,784.0769
2023-04-29T07:55:45.239Z,781.1539
2023-04-29T07:56:46.342Z,777.5385
2023-04-29T07:57:47.428Z,781.8461
2023-04-29T07:58:48.524Z,786.9231
2023-04-29T07:59:49.676Z,785.3077
2023-04-29T08:00:50.757Z,778.0000
2023-04-29T08:01:51.841Z,775.1539
2023-04-29T08:02:53.107Z,773.5385
2023-04-29T08:03:54.247Z,769.2308
2023-04-29T08:04:55.921Z,773.6923
2023-04-29T08:05:56.283Z,774.7692
2023-04-29T08:06:57.332Z,774.6923
2023-04-29T08:07:58.456Z,772.2308
2023-04-29T08:08:59.533Z,771.2308
2023-04-29T08:10:00.650Z,772.3846
2023-04-29T08:11:01.803Z,772.3846
2023-04-29T08:12:02.844Z,773.3846
2023-04-29T08:13:03.960Z,770.0769
2023-04-29T08:14:05.048Z,764.1539
2023-04-29T08:15:07.717Z,764.4615
2023-04-29T08:16:07.324Z,765.8461
2023-04-29T08:17:08.425Z,766.5385
2023-04-29T08:18:09.497Z,768.0000
2023-04-29T08:19:10.637Z,769.6923
2023-04-29T08:20:11.665Z,765.7692
2023-04-29T08:21:12.755Z,760.2308
2023-04-29T08:22:13.878Z,759.3846
2023-04-29T08:23:15.069Z,759.0000
2023-04-29T08:24:16.136Z,762.6923
2023-04-29T08:25:17.228Z,766.0769
2023-04-29T08:26:18.355Z,765.6923
2023-04-29T08:27:19.428Z,760.8461
2023-04-29T08:28:20.539Z,758.5385
2023-04-29T08:29:21.893Z,760.0000
2023-04-29T08:30:22.742Z,761.2308
2023-04-29T08:31:23.867Z,764.0769
2023-04-29T08:32:24.972Z,766.3846
2023-04-29T08:33:26.025Z,764.0769
2023-04-29T08:34:27.133Z,759.6154
2023-04-29T08:35:28.304Z,752.3846
2023-04-29T08:36:29.424Z,755.6154
2023-04-29T08:37:30.418Z,757.4615
2023-04-29T08:38:31.534Z,759.2308
2023-04-29T08:39:32.616Z,760.6923
2023-04-29T08:40:33.733Z,761.6154
2023-04-29T08:41:34.833Z,757.6154
2023-04-29T08:42:35.939Z,756.1539
2023-04-29T08:43:37.035Z,759.2308
2023-04-29T08:44:38.121Z,762.5385
2023-04-29T08:45:39.265Z,764.5385
2023-04-29T08:46:40.334Z,759.4615
2023-04-29T08:47:41.501Z,752.3077
2023-04-29T08:48:44.974Z,754.0000
2023-04-29T08:49:43.615Z,757.2308
2023-04-29T08:50:44.743Z,758.3077
2023-04-29T08:51:45.818Z,758.9231
2023-04-29T08:52:46.926Z,759.3077
2023-04-29T08:53:48.327Z,753.3077
2023-04-29T08:54:49.142Z,748.6154
2023-04-29T08:55:50.275Z,747.2308
2023-04-29T08:56:51.328Z,746.4615
2023-04-29T08:57:52.446Z,745.7692
2023-04-29T08:58:53.578Z,746.9231
2023-04-29T08:59:54.684Z,742.9231
2023-04-29T09:00:55.772Z,737.7692
2023-04-29T09:01:56.900Z,738.0000
2023-04-29T09:02:58.022Z,736.4615
2023-04-29T09:03:59.211Z,738.4615
2023-04-29T09:05:00.340Z,740.6923
2023-04-29T09:06:01.321Z,745.6923
2023-04-29T09:07:02.372Z,744.5385
2023-04-29T09:08:03.462Z,739.7692
2023-04-29T09:09:04.570Z,742.7692
2023-04-29T09:10:05.680Z,740.5385
2023-04-29T09:11:06.764Z,741.0769
2023-04-29T09:12:07.907Z,747.1539
2023-04-29T09:13:08.973Z,752.6923
2023-04-29T09:14:10.080Z,747.0769
2023-04-29T09:15:11.186Z,739.4615
2023-04-29T09:16:12.300Z,738.0000
2023-04-29T09:17:13.381Z,740.3846
2023-04-29T09:18:14.488Z,742.9231
2023-04-29T09:19:15.583Z,732.7692
2023-04-29T09:20:16.689Z,728.8461
2023-04-29T09:21:19.590Z,726.2308
2023-04-29T09:22:18.899Z,725.8461
2023-04-29T09:23:20.041Z,726.2308
2023-04-29T09:24:21.109Z,728.4615
2023-04-29T09:25:22.213Z,730.0000
2023-04-29T09:26:23.329Z,729.3846
2023-04-29T09:27:24.423Z,723.5385
2023-04-29T09:28:25.521Z,721.8461
2023-04-29T09:29:26.663Z,725.1539
2023-04-29T09:30:27.718Z,728.9231
2023-04-29T09:31:28.871Z,733.8461
2023-04-29T09:32:30.000Z,732.6923
2023-04-29T09:33:31.037Z,729.5385
2023-04-29T09:34:32.122Z,729.3846
2023-04-29T09:35:33.286Z,728.7692
2023-04-29T09:36:34.355Z,727.2308
2023-04-29T09:37:35.461Z,729.4615
2023-04-29T09:38:36.548Z,728.0769
2023-04-29T09:39:37.664Z,723.5385
2023-04-29T09:40:56.776Z,722.4615
2023-04-29T09:41:40.920Z,725.2308
2023-04-29T09:42:40.987Z,727.3077
2023-04-29T09:43:42.064Z,728.8461
2023-04-29T09:44:43.176Z,729.0769
2023-04-29T09:45:44.346Z,723.5385
2023-04-29T09:46:45.388Z,719.4615
2023-04-29T09:47:46.576Z,716.4615
2023-04-29T09:48:47.585Z,720.0769
2023-04-29T09:49:48.699Z,720.8461
2023-04-29T09:50:49.779Z,722.5385
2023-04-29T09:51:50.882Z,719.6154
2023-04-29T09:52:52.063Z,713.3077
2023-04-29T09:53:53.141Z,715.7692
2023-04-29T09:54:54.400Z,713.6154
2023-04-29T09:55:55.311Z,715.3846
2023-04-29T09:56:56.438Z,719.4615
2023-04-29T09:57:57.512Z,718.3077
2023-04-29T09:58:58.603Z,712.9231
2023-04-29T09:59:59.761Z,711.3846
2023-04-29T10:01:00.855Z,715.0000
2023-04-29T10:02:01.997Z,715.4615
2023-04-29T10:03:03.128Z,716.3846
2023-04-29T10:04:04.134Z,720.6154
2023-04-29T10:05:05.382Z,718.0769
2023-04-29T10:06:06.300Z,713.6154
2023-04-29T10:07:07.419Z,712.7692
2023-04-29T10:08:08.509Z,713.0000
2023-04-29T10:09:09.616Z,710.5385
2023-04-29T10:10:10.718Z,712.6923
2023-04-29T10:11:11.844Z,712.8461
2023-04-29T10:12:12.915Z,708.8461
2023-04-29T10:13:13.999Z,706.8461
2023-04-29T10:14:15.111Z,707.3077
2023-04-29T10:15:16.260Z,707.3077
2023-04-29T10:16:17.520Z,712.2308
2023-04-29T10:17:18.415Z,716.0000
2023-04-29T10:18:19.537Z,712.9231
2023-04-29T10:19:20.593Z,708.0000
2023-04-29T10:20:21.709Z,706.0769
2023-04-29T10:21:22.801Z,703.9231
2023-04-29T10:22:23.964Z,706.5385
2023-04-29T10:23:25.000Z,711.5385
2023-04-29T10:24:26.109Z,711.4615
2023-04-29T10:25:27.194Z,708.6923
2023-04-29T10:26:28.302Z,703.9231
2023-04-29T10:27:29.396Z,703.7692
2023-04-29T10:28:30.530Z,703.6923
2023-04-29T10:29:31.586Z,699.7692
2023-04-29T10:30:32.695Z,701.5385
2023-04-29T10:31:33.802Z,699.6923
2023-04-29T10:32:49.826Z,698.2308
2023-04-29T10:33:37.056Z,698.0000
2023-04-29T10:34:37.114Z,702.3846
2023-04-29T10:35:38.172Z,708.6923
2023-04-29T10:36:39.288Z,706.8461
2023-04-29T10:37:40.392Z,697.6154
2023-04-29T10:38:41.470Z,693.7692
2023-04-29T10:39:42.579Z,693.0769
2023-04-29T10:40:43.727Z,693.6923
2023-04-29T10:41:44.759Z,694.6923
2023-04-29T10:42:45.890Z,697.0000
2023-04-29T10:43:46.962Z,697.6154
2023-04-29T10:44:48.067Z,692.0769
2023-04-29T10:45:49.162Z,689.9231
2023-04-29T10:46:50.348Z,688.3846
2023-04-29T10:47:51.454Z,689.3846
2023-04-29T10:48:52.468Z,691.3077
2023-04-29T10:49:53.547Z,694.3077
2023-04-29T10:50:54.686Z,689.6154
2023-04-29T10:51:55.761Z,688.0000
2023-04-29T10:52:56.899Z,685.8461
2023-04-29T10:53:57.952Z,686.8461
2023-04-29T10:54:59.043Z,688.7692
2023-04-29T10:56:00.160Z,691.5385
2023-04-29T10:57:01.238Z,690.6154
2023-04-29T10:58:02.351Z,685.9231
2023-04-29T10:59:03.468Z,685.2308
2023-04-29T11:00:04.522Z,685.7692
2023-04-29T11:01:05.706Z,686.0769
2023-04-29T11:02:06.725Z,689.4615
2023-04-29T11:03:08.039Z,691.3846
2023-04-29T11:04:09.038Z,689.8461
2023-04-29T11:05:10.061Z,685.0769
2023-04-29T11:06:11.133Z,685.3077
2023-04-29T11:07:12.217Z,682.6154
2023-04-29T11:08:13.350Z,684.0000
2023-04-29T11:09:14.496Z,684.7692
2023-04-29T11:10:15.530Z,688.2308
2023-04-29T11:11:16.626Z,685.4615
2023-04-29T11:12:17.722Z,680.7692
2023-04-29T11:13:18.847Z,678.7692
2023-04-29T11:14:19.927Z,682.6154
2023-04-29T11:15:21.030Z,684.3077
2023-04-29T11:16:22.191Z,680.7692
2023-04-29T11:17:23.221Z,679.0000
2023-04-29T11:18:24.340Z,677.5385
2023-04-29T11:19:25.417Z,677.2308
2023-04-29T11:20:26.528Z,678.2308
2023-04-29T11:21:27.640Z,677.3077
2023-04-29T11:22:28.681Z,680.9231
2023-04-29T11:23:29.839Z,681.0769
2023-04-29T11:24:30.925Z,677.9231
2023-04-29T11:25:31.971Z,675.8461
2023-04-29T11:26:33.105Z,676.3846
2023-04-29T11:27:34.217Z,679.6154
2023-04-29T11:28:35.271Z,683.6923
2023-04-29T11:29:36.380Z,681.8461
2023-04-29T11:30:37.473Z,675.6154
2023-04-29T11:31:38.631Z,672.2308
2023-04-29T11:32:39.842Z,674.6923
2023-04-29T11:33:40.809Z,674.8461
2023-04-29T11:34:41.895Z,675.2308
2023-04-29T11:35:42.963Z,676.6154
2023-04-29T11:36:45.770Z,669.5385
2023-04-29T11:37:45.179Z,670.0000
2023-04-29T11:38:46.287Z,670.6923
2023-04-29T11:39:47.410Z,673.5385
2023-04-29T11:40:48.465Z,674.0000
2023-04-29T11:41:51.229Z,677.6923
2023-04-29T11:42:50.743Z,679.2308
2023-04-29T11:43:51.778Z,675.0769
2023-04-29T11:44:53.177Z,670.8461
2023-04-29T11:45:54.119Z,664.4615
2023-04-29T11:46:55.084Z,664.9231
2023-04-29T11:47:56.240Z,670.3846
2023-04-29T11:48:57.277Z,674.0769
2023-04-29T11:49:58.457Z,670.2308
2023-04-29T11:50:59.490Z,670.6154
2023-04-29T11:52:00.625Z,671.1539